Whiteman AFB, Missouri
Current Conditions -  °F | °C
As of 1:58 PM on Saturday 25 Oct 2014 (Local Time) from KSZL Reporting Station
Clear Clear  
Wind Chill: 74°   Ceiling: Unl
Heat Index: 74°   Visibility: 8mi
Dew Point: 65°   Wind: 3mph
Humidity: 71%   Direction: 70°ENE
Pressure: 30.04"   Gusts: NA
Location:  38.73°N, 93.55°W
Report Text: KSZL 251858Z 07003KT 8SM CLR 24/18 A3004 RMK AO2A SLP171 T02360181 $
Loading
Personal Weather Stations






























Interactive Weather Map
Tropical Storm Tracking
New forecast layout! Learn more

10-Day Weather Forecast

Advertisements
Track Severe Weather on mobile